sensor_id;sensor_type;location;lat;lon;timestamp;P1;durP1;ratioP1;P2;durP2;ratioP2
33491;SDS011;20010;51.488;7.232;2023-03-01T00:00:39;9.20;;;7.03;;
33491;SDS011;20010;51.488;7.232;2023-03-01T00:03:06;9.80;;;6.57;;
33491;SDS011;20010;51.488;7.232;2023-03-01T00:05:32;10.73;;;6.95;;
33491;SDS011;20010;51.488;7.232;2023-03-01T00:07:59;11.77;;;8.05;;
33491;SDS011;20010;51.488;7.232;2023-03-01T00:10:25;9.23;;;7.53;;
33491;SDS011;20010;51.488;7.232;2023-03-01T00:12:52;10.38;;;6.95;;
33491;SDS011;20010;51.488;7.232;2023-03-01T00:15:19;9.68;;;7.65;;
33491;SDS011;20010;51.488;7.232;2023-03-01T00:17:45;10.07;;;7.57;;
33491;SDS011;20010;51.488;7.232;2023-03-01T00:20:12;9.35;;;7.40;;
33491;SDS011;20010;51.488;7.232;2023-03-01T00:22:39;9.75;;;7.28;;
33491;SDS011;20010;51.488;7.232;2023-03-01T00:25:05;13.75;;;7.53;;
33491;SDS011;20010;51.488;7.232;2023-03-01T00:27:32;9.80;;;7.22;;
33491;SDS011;20010;51.488;7.232;2023-03-01T00:29:59;9.63;;;7.28;;
33491;SDS011;20010;51.488;7.232;2023-03-01T00:32:25;9.90;;;7.45;;
33491;SDS011;20010;51.488;7.232;2023-03-01T00:34:52;9.05;;;6.43;;
33491;SDS011;20010;51.488;7.232;2023-03-01T00:37:21;8.15;;;7.07;;
33491;SDS011;20010;51.488;7.232;2023-03-01T00:39:49;11.15;;;7.50;;
33491;SDS011;20010;51.488;7.232;2023-03-01T00:42:16;9.80;;;7.45;;
33491;SDS011;20010;51.488;7.232;2023-03-01T00:44:43;10.68;;;7.88;;
33491;SDS011;20010;51.488;7.232;2023-03-01T00:47:09;9.63;;;7.50;;
33491;SDS011;20010;51.488;7.232;2023-03-01T00:49:36;10.07;;;7.90;;
33491;SDS011;20010;51.488;7.232;2023-03-01T00:52:02;10.10;;;7.53;;
33491;SDS011;20010;51.488;7.232;2023-03-01T00:54:29;8.45;;;7.32;;
33491;SDS011;20010;51.488;7.232;2023-03-01T00:56:55;10.93;;;8.63;;
33491;SDS011;20010;51.488;7.232;2023-03-01T00:59:22;10.10;;;7.57;;
33491;SDS011;20010;51.488;7.232;2023-03-01T01:01:48;11.80;;;7.22;;
33491;SDS011;20010;51.488;7.232;2023-03-01T01:04:15;11.85;;;7.63;;
33491;SDS011;20010;51.488;7.232;2023-03-01T01:06:43;12.02;;;8.05;;
33491;SDS011;20010;51.488;7.232;2023-03-01T01:09:12;8.50;;;7.05;;
33491;SDS011;20010;51.488;7.232;2023-03-01T01:11:47;8.30;;;7.45;;
33491;SDS011;20010;51.488;7.232;2023-03-01T01:14:15;9.82;;;7.53;;
33491;SDS011;20010;51.488;7.232;2023-03-01T01:16:41;11.32;;;8.20;;
33491;SDS011;20010;51.488;7.232;2023-03-01T01:19:09;10.25;;;7.68;;
33491;SDS011;20010;51.488;7.232;2023-03-01T01:21:37;10.45;;;7.35;;
33491;SDS011;20010;51.488;7.232;2023-03-01T01:24:04;9.80;;;8.07;;
33491;SDS011;20010;51.488;7.232;2023-03-01T01:26:31;9.30;;;7.63;;
33491;SDS011;20010;51.488;7.232;2023-03-01T01:29:00;10.13;;;8.02;;
33491;SDS011;20010;51.488;7.232;2023-03-01T01:31:28;12.88;;;8.40;;
33491;SDS011;20010;51.488;7.232;2023-03-01T01:33:55;11.00;;;8.15;;
33491;SDS011;20010;51.488;7.232;2023-03-01T01:36:22;10.07;;;7.25;;
33491;SDS011;20010;51.488;7.232;2023-03-01T01:38:49;7.90;;;7.10;;
33491;SDS011;20010;51.488;7.232;2023-03-01T01:41:16;11.05;;;7.30;;
33491;SDS011;20010;51.488;7.232;2023-03-01T01:43:45;11.65;;;8.07;;
33491;SDS011;20010;51.488;7.232;2023-03-01T01:46:34;11.57;;;8.10;;
33491;SDS011;20010;51.488;7.232;2023-03-01T01:49:23;12.20;;;8.95;;
33491;SDS011;20010;51.488;7.232;2023-03-01T01:51:59;12.80;;;8.15;;
33491;SDS011;20010;51.488;7.232;2023-03-01T01:57:32;10.55;;;7.60;;
33491;SDS011;20010;51.488;7.232;2023-03-01T02:00:03;11.05;;;7.95;;
33491;SDS011;20010;51.488;7.232;2023-03-01T02:02:32;10.50;;;7.70;;
33491;SDS011;20010;51.488;7.232;2023-03-01T02:05:01;11.05;;;7.97;;
33491;SDS011;20010;51.488;7.232;2023-03-01T02:07:36;9.85;;;7.60;;
33491;SDS011;20010;51.488;7.232;2023-03-01T02:10:05;10.75;;;8.40;;
33491;SDS011;20010;51.488;7.232;2023-03-01T02:12:32;10.82;;;7.75;;
33491;SDS011;20010;51.488;7.232;2023-03-01T02:14:59;9.63;;;7.80;;
33491;SDS011;20010;51.488;7.232;2023-03-01T02:17:25;10.18;;;7.38;;
33491;SDS011;20010;51.488;7.232;2023-03-01T02:20:08;9.60;;;7.00;;
33491;SDS011;20010;51.488;7.232;2023-03-01T02:22:50;10.63;;;7.82;;
33491;SDS011;20010;51.488;7.232;2023-03-01T02:28:32;12.73;;;8.85;;
33491;SDS011;20010;51.488;7.232;2023-03-01T02:30:45;13.15;;;8.32;;
33491;SDS011;20010;51.488;7.232;2023-03-01T02:33:32;12.15;;;7.97;;
33491;SDS011;20010;51.488;7.232;2023-03-01T02:36:14;11.88;;;8.02;;
33491;SDS011;20010;51.488;7.232;2023-03-01T02:38:43;13.00;;;8.75;;
33491;SDS011;20010;51.488;7.232;2023-03-01T02:41:11;10.30;;;7.90;;
33491;SDS011;20010;51.488;7.232;2023-03-01T02:43:40;11.50;;;8.40;;
33491;SDS011;20010;51.488;7.232;2023-03-01T02:46:08;10.13;;;7.55;;
33491;SDS011;20010;51.488;7.232;2023-03-01T02:48:47;10.60;;;8.10;;
33491;SDS011;20010;51.488;7.232;2023-03-01T02:51:27;11.15;;;8.10;;
33491;SDS011;20010;51.488;7.232;2023-03-01T02:56:42;9.73;;;8.23;;
33491;SDS011;20010;51.488;7.232;2023-03-01T02:59:09;9.20;;;7.63;;
33491;SDS011;20010;51.488;7.232;2023-03-01T03:01:35;13.88;;;8.68;;
33491;SDS011;20010;51.488;7.232;2023-03-01T03:04:06;14.70;;;9.18;;
33491;SDS011;20010;51.488;7.232;2023-03-01T03:06:34;13.38;;;8.80;;
33491;SDS011;20010;51.488;7.232;2023-03-01T03:09:00;9.82;;;8.25;;
33491;SDS011;20010;51.488;7.232;2023-03-01T03:11:27;9.27;;;7.90;;
33491;SDS011;20010;51.488;7.232;2023-03-01T03:13:54;9.52;;;7.63;;
33491;SDS011;20010;51.488;7.232;2023-03-01T03:16:22;9.10;;;7.75;;
33491;SDS011;20010;51.488;7.232;2023-03-01T03:18:48;11.50;;;7.93;;
33491;SDS011;20010;51.488;7.232;2023-03-01T03:21:15;11.88;;;8.93;;
33491;SDS011;20010;51.488;7.232;2023-03-01T03:23:42;10.57;;;7.75;;
33491;SDS011;20010;51.488;7.232;2023-03-01T03:26:09;13.55;;;8.30;;
33491;SDS011;20010;51.488;7.232;2023-03-01T03:28:39;15.40;;;8.15;;
33491;SDS011;20010;51.488;7.232;2023-03-01T03:31:06;13.27;;;8.32;;
33491;SDS011;20010;51.488;7.232;2023-03-01T03:33:33;13.43;;;8.48;;
33491;SDS011;20010;51.488;7.232;2023-03-01T03:36:00;10.40;;;8.30;;
33491;SDS011;20010;51.488;7.232;2023-03-01T03:38:27;13.98;;;8.43;;
33491;SDS011;20010;51.488;7.232;2023-03-01T03:43:29;11.95;;;7.97;;
33491;SDS011;20010;51.488;7.232;2023-03-01T03:45:57;14.32;;;9.07;;
33491;SDS011;20010;51.488;7.232;2023-03-01T03:48:24;10.40;;;7.35;;
33491;SDS011;20010;51.488;7.232;2023-03-01T03:50:52;9.18;;;8.05;;
33491;SDS011;20010;51.488;7.232;2023-03-01T03:53:22;12.40;;;7.72;;
33491;SDS011;20010;51.488;7.232;2023-03-01T03:55:50;10.45;;;8.63;;
33491;SDS011;20010;51.488;7.232;2023-03-01T03:58:18;9.50;;;7.45;;
33491;SDS011;20010;51.488;7.232;2023-03-01T04:00:46;13.32;;;9.02;;
33491;SDS011;20010;51.488;7.232;2023-03-01T04:03:15;11.90;;;8.57;;
33491;SDS011;20010;51.488;7.232;2023-03-01T04:05:42;9.77;;;7.90;;
33491;SDS011;20010;51.488;7.232;2023-03-01T04:08:09;11.65;;;9.20;;
33491;SDS011;20010;51.488;7.232;2023-03-01T04:10:43;10.90;;;8.45;;
33491;SDS011;20010;51.488;7.232;2023-03-01T04:13:12;12.35;;;8.73;;
33491;SDS011;20010;51.488;7.232;2023-03-01T04:15:40;12.57;;;9.45;;
33491;SDS011;20010;51.488;7.232;2023-03-01T04:18:11;12.18;;;8.50;;
33491;SDS011;20010;51.488;7.232;2023-03-01T04:20:38;12.70;;;9.15;;
33491;SDS011;20010;51.488;7.232;2023-03-01T04:23:06;14.50;;;9.45;;
33491;SDS011;20010;51.488;7.232;2023-03-01T04:25:45;16.67;;;9.35;;
33491;SDS011;20010;51.488;7.232;2023-03-01T04:28:21;12.05;;;8.70;;
33491;SDS011;20010;51.488;7.232;2023-03-01T04:30:53;11.90;;;8.90;;
33491;SDS011;20010;51.488;7.232;2023-03-01T04:33:21;11.75;;;7.93;;
33491;SDS011;20010;51.488;7.232;2023-03-01T04:35:48;12.15;;;8.73;;
33491;SDS011;20010;51.488;7.232;2023-03-01T04:38:18;12.20;;;8.63;;
33491;SDS011;20010;51.488;7.232;2023-03-01T04:40:45;13.07;;;8.82;;
33491;SDS011;20010;51.488;7.232;2023-03-01T04:43:12;10.43;;;8.52;;
33491;SDS011;20010;51.488;7.232;2023-03-01T04:45:42;13.20;;;9.32;;
33491;SDS011;20010;51.488;7.232;2023-03-01T04:48:08;11.13;;;8.77;;
33491;SDS011;20010;51.488;7.232;2023-03-01T04:50:35;11.82;;;8.57;;
33491;SDS011;20010;51.488;7.232;2023-03-01T04:53:02;13.23;;;8.98;;
33491;SDS011;20010;51.488;7.232;2023-03-01T04:55:29;10.98;;;8.32;;
33491;SDS011;20010;51.488;7.232;2023-03-01T04:57:55;12.02;;;8.98;;
33491;SDS011;20010;51.488;7.232;2023-03-01T05:00:22;11.68;;;8.88;;
33491;SDS011;20010;51.488;7.232;2023-03-01T05:07:54;10.65;;;8.40;;
33491;SDS011;20010;51.488;7.232;2023-03-01T05:12:51;13.85;;;9.18;;
33491;SDS011;20010;51.488;7.232;2023-03-01T05:15:20;12.90;;;9.38;;
33491;SDS011;20010;51.488;7.232;2023-03-01T05:17:48;15.82;;;9.43;;
33491;SDS011;20010;51.488;7.232;2023-03-01T05:20:15;15.40;;;9.15;;
33491;SDS011;20010;51.488;7.232;2023-03-01T05:22:42;12.82;;;9.50;;
33491;SDS011;20010;51.488;7.232;2023-03-01T05:25:09;13.85;;;10.25;;
33491;SDS011;20010;51.488;7.232;2023-03-01T05:27:36;13.77;;;9.05;;
33491;SDS011;20010;51.488;7.232;2023-03-01T05:30:02;15.40;;;10.23;;
33491;SDS011;20010;51.488;7.232;2023-03-01T05:32:43;12.52;;;8.93;;
33491;SDS011;20010;51.488;7.232;2023-03-01T05:35:12;15.98;;;9.98;;
33491;SDS011;20010;51.488;7.232;2023-03-01T05:37:48;15.43;;;10.43;;
33491;SDS011;20010;51.488;7.232;2023-03-01T05:40:21;17.55;;;10.05;;
33491;SDS011;20010;51.488;7.232;2023-03-01T05:42:52;18.63;;;12.32;;
33491;SDS011;20010;51.488;7.232;2023-03-01T05:45:20;15.40;;;11.50;;
33491;SDS011;20010;51.488;7.232;2023-03-01T05:47:48;14.98;;;10.77;;
33491;SDS011;20010;51.488;7.232;2023-03-01T05:50:16;15.88;;;11.30;;
33491;SDS011;20010;51.488;7.232;2023-03-01T05:53:02;17.73;;;9.82;;
33491;SDS011;20010;51.488;7.232;2023-03-01T05:55:31;14.45;;;9.85;;
33491;SDS011;20010;51.488;7.232;2023-03-01T05:57:59;14.20;;;9.57;;
33491;SDS011;20010;51.488;7.232;2023-03-01T06:00:27;12.95;;;9.85;;
33491;SDS011;20010;51.488;7.232;2023-03-01T06:02:54;21.40;;;12.90;;
33491;SDS011;20010;51.488;7.232;2023-03-01T06:05:22;17.65;;;11.05;;
33491;SDS011;20010;51.488;7.232;2023-03-01T06:07:49;17.50;;;10.10;;
33491;SDS011;20010;51.488;7.232;2023-03-01T06:10:16;13.65;;;10.00;;
33491;SDS011;20010;51.488;7.232;2023-03-01T06:12:44;18.67;;;11.13;;
33491;SDS011;20010;51.488;7.232;2023-03-01T06:15:11;18.38;;;10.27;;
33491;SDS011;20010;51.488;7.232;2023-03-01T06:17:40;15.40;;;10.75;;
33491;SDS011;20010;51.488;7.232;2023-03-01T06:20:09;15.52;;;10.68;;
33491;SDS011;20010;51.488;7.232;2023-03-01T06:22:43;14.00;;;9.75;;
33491;SDS011;20010;51.488;7.232;2023-03-01T06:25:10;15.57;;;10.05;;
33491;SDS011;20010;51.488;7.232;2023-03-01T06:27:38;13.52;;;9.43;;
33491;SDS011;20010;51.488;7.232;2023-03-01T06:30:06;12.55;;;9.32;;
33491;SDS011;20010;51.488;7.232;2023-03-01T06:32:36;17.53;;;9.87;;
33491;SDS011;20010;51.488;7.232;2023-03-01T06:35:04;12.88;;;9.60;;
33491;SDS011;20010;51.488;7.232;2023-03-01T06:37:31;16.25;;;10.43;;
33491;SDS011;20010;51.488;7.232;2023-03-01T06:39:57;16.88;;;10.63;;
33491;SDS011;20010;51.488;7.232;2023-03-01T06:42:24;14.07;;;9.98;;
33491;SDS011;20010;51.488;7.232;2023-03-01T06:44:50;15.10;;;9.70;;
33491;SDS011;20010;51.488;7.232;2023-03-01T06:47:17;12.73;;;9.38;;
33491;SDS011;20010;51.488;7.232;2023-03-01T06:49:44;15.25;;;10.25;;
33491;SDS011;20010;51.488;7.232;2023-03-01T06:52:10;15.57;;;10.15;;
33491;SDS011;20010;51.488;7.232;2023-03-01T06:54:37;18.05;;;11.02;;
33491;SDS011;20010;51.488;7.232;2023-03-01T06:57:03;16.65;;;10.98;;
33491;SDS011;20010;51.488;7.232;2023-03-01T06:59:31;17.23;;;10.80;;
33491;SDS011;20010;51.488;7.232;2023-03-01T07:01:58;18.92;;;11.40;;
33491;SDS011;20010;51.488;7.232;2023-03-01T07:04:24;19.05;;;11.52;;
33491;SDS011;20010;51.488;7.232;2023-03-01T07:06:51;15.90;;;11.00;;
33491;SDS011;20010;51.488;7.232;2023-03-01T07:09:24;16.65;;;11.02;;
33491;SDS011;20010;51.488;7.232;2023-03-01T07:11:51;19.83;;;10.13;;
33491;SDS011;20010;51.488;7.232;2023-03-01T07:14:17;19.95;;;10.93;;
33491;SDS011;20010;51.488;7.232;2023-03-01T07:16:46;16.50;;;11.70;;
33491;SDS011;20010;51.488;7.232;2023-03-01T07:19:12;20.40;;;12.05;;
33491;SDS011;20010;51.488;7.232;2023-03-01T07:21:39;18.27;;;11.05;;
33491;SDS011;20010;51.488;7.232;2023-03-01T07:24:06;19.88;;;10.60;;
33491;SDS011;20010;51.488;7.232;2023-03-01T07:26:33;17.55;;;11.50;;
33491;SDS011;20010;51.488;7.232;2023-03-01T07:29:00;20.20;;;12.38;;
33491;SDS011;20010;51.488;7.232;2023-03-01T07:31:27;17.95;;;11.27;;
33491;SDS011;20010;51.488;7.232;2023-03-01T07:33:54;17.83;;;10.73;;
33491;SDS011;20010;51.488;7.232;2023-03-01T07:36:21;20.95;;;11.52;;
33491;SDS011;20010;51.488;7.232;2023-03-01T07:38:48;21.00;;;12.68;;
33491;SDS011;20010;51.488;7.232;2023-03-01T07:41:14;20.58;;;11.98;;
33491;SDS011;20010;51.488;7.232;2023-03-01T07:43:41;18.42;;;12.02;;
33491;SDS011;20010;51.488;7.232;2023-03-01T07:46:07;19.23;;;11.32;;
33491;SDS011;20010;51.488;7.232;2023-03-01T07:48:34;20.80;;;12.40;;
33491;SDS011;20010;51.488;7.232;2023-03-01T07:51:02;16.55;;;12.20;;
33491;SDS011;20010;51.488;7.232;2023-03-01T07:53:30;17.55;;;11.75;;
33491;SDS011;20010;51.488;7.232;2023-03-01T07:56:04;14.80;;;10.52;;
33491;SDS011;20010;51.488;7.232;2023-03-01T07:58:33;15.35;;;11.43;;
33491;SDS011;20010;51.488;7.232;2023-03-01T08:01:10;16.75;;;10.57;;
33491;SDS011;20010;51.488;7.232;2023-03-01T08:03:39;16.35;;;9.85;;
33491;SDS011;20010;51.488;7.232;2023-03-01T08:06:07;15.73;;;10.77;;
33491;SDS011;20010;51.488;7.232;2023-03-01T08:08:34;16.80;;;10.10;;
33491;SDS011;20010;51.488;7.232;2023-03-01T08:11:02;12.35;;;9.55;;
33491;SDS011;20010;51.488;7.232;2023-03-01T08:13:30;14.88;;;10.23;;
33491;SDS011;20010;51.488;7.232;2023-03-01T08:16:04;13.85;;;9.93;;
33491;SDS011;20010;51.488;7.232;2023-03-01T08:18:36;16.88;;;9.98;;
33491;SDS011;20010;51.488;7.232;2023-03-01T08:21:06;16.05;;;10.38;;
33491;SDS011;20010;51.488;7.232;2023-03-01T08:23:40;16.55;;;9.38;;
33491;SDS011;20010;51.488;7.232;2023-03-01T08:26:08;14.00;;;9.30;;
33491;SDS011;20010;51.488;7.232;2023-03-01T08:28:38;13.07;;;9.95;;
33491;SDS011;20010;51.488;7.232;2023-03-01T08:33:46;13.38;;;9.93;;
33491;SDS011;20010;51.488;7.232;2023-03-01T08:36:32;14.93;;;10.20;;
33491;SDS011;20010;51.488;7.232;2023-03-01T08:39:00;12.00;;;9.43;;
33491;SDS011;20010;51.488;7.232;2023-03-01T08:41:28;15.85;;;10.93;;
33491;SDS011;20010;51.488;7.232;2023-03-01T08:43:58;11.70;;;8.77;;
33491;SDS011;20010;51.488;7.232;2023-03-01T08:46:29;12.00;;;8.93;;
33491;SDS011;20010;51.488;7.232;2023-03-01T08:48:57;12.63;;;9.38;;
33491;SDS011;20010;51.488;7.232;2023-03-01T08:51:27;14.27;;;9.80;;
33491;SDS011;20010;51.488;7.232;2023-03-01T08:53:55;11.63;;;9.82;;
33491;SDS011;20010;51.488;7.232;2023-03-01T08:56:21;12.90;;;9.85;;
33491;SDS011;20010;51.488;7.232;2023-03-01T08:58:48;15.73;;;9.20;;
33491;SDS011;20010;51.488;7.232;2023-03-01T09:01:18;14.10;;;9.65;;
33491;SDS011;20010;51.488;7.232;2023-03-01T09:03:51;19.25;;;11.55;;
33491;SDS011;20010;51.488;7.232;2023-03-01T09:06:18;12.98;;;9.55;;
33491;SDS011;20010;51.488;7.232;2023-03-01T09:08:46;13.65;;;9.48;;
33491;SDS011;20010;51.488;7.232;2023-03-01T09:11:20;16.70;;;9.48;;
33491;SDS011;20010;51.488;7.232;2023-03-01T09:13:48;12.32;;;8.93;;
33491;SDS011;20010;51.488;7.232;2023-03-01T09:16:16;13.23;;;9.07;;
33491;SDS011;20010;51.488;7.232;2023-03-01T09:18:44;13.35;;;9.70;;
33491;SDS011;20010;51.488;7.232;2023-03-01T09:21:13;16.52;;;9.57;;
33491;SDS011;20010;51.488;7.232;2023-03-01T09:23:44;13.30;;;8.70;;
33491;SDS011;20010;51.488;7.232;2023-03-01T09:26:13;9.82;;;7.88;;
33491;SDS011;20010;51.488;7.232;2023-03-01T09:28:42;11.32;;;7.90;;
33491;SDS011;20010;51.488;7.232;2023-03-01T09:31:10;12.35;;;8.48;;
33491;SDS011;20010;51.488;7.232;2023-03-01T09:33:39;9.75;;;7.53;;
33491;SDS011;20010;51.488;7.232;2023-03-01T09:36:07;9.23;;;7.50;;
33491;SDS011;20010;51.488;7.232;2023-03-01T09:38:38;13.90;;;7.72;;
33491;SDS011;20010;51.488;7.232;2023-03-01T09:43:48;13.77;;;7.20;;
33491;SDS011;20010;51.488;7.232;2023-03-01T09:46:22;9.75;;;7.55;;
33491;SDS011;20010;51.488;7.232;2023-03-01T09:48:57;10.63;;;7.55;;
33491;SDS011;20010;51.488;7.232;2023-03-01T09:52:03;8.48;;;6.82;;
33491;SDS011;20010;51.488;7.232;2023-03-01T09:54:44;12.18;;;7.13;;
33491;SDS011;20010;51.488;7.232;2023-03-01T10:00:02;9.68;;;6.53;;
33491;SDS011;20010;51.488;7.232;2023-03-01T10:08:27;9.80;;;6.40;;
33491;SDS011;20010;51.488;7.232;2023-03-01T10:11:23;10.27;;;6.78;;
33491;SDS011;20010;51.488;7.232;2023-03-01T10:17:02;9.32;;;6.53;;
33491;SDS011;20010;51.488;7.232;2023-03-01T10:19:41;8.65;;;6.70;;
33491;SDS011;20010;51.488;7.232;2023-03-01T10:22:21;8.23;;;6.10;;
33491;SDS011;20010;51.488;7.232;2023-03-01T10:24:51;7.00;;;5.70;;
33491;SDS011;20010;51.488;7.232;2023-03-01T10:27:21;10.63;;;6.45;;
33491;SDS011;20010;51.488;7.232;2023-03-01T10:32:19;7.80;;;5.50;;
33491;SDS011;20010;51.488;7.232;2023-03-01T10:34:50;6.68;;;5.28;;
33491;SDS011;20010;51.488;7.232;2023-03-01T10:37:17;6.88;;;5.95;;
33491;SDS011;20010;51.488;7.232;2023-03-01T10:42:28;6.93;;;5.72;;
33491;SDS011;20010;51.488;7.232;2023-03-01T10:44:58;8.38;;;6.30;;
33491;SDS011;20010;51.488;7.232;2023-03-01T10:47:41;7.22;;;6.10;;
33491;SDS011;20010;51.488;7.232;2023-03-01T10:50:18;7.35;;;5.78;;
33491;SDS011;20010;51.488;7.232;2023-03-01T10:52:57;6.82;;;5.85;;
33491;SDS011;20010;51.488;7.232;2023-03-01T10:55:35;9.02;;;5.90;;
33491;SDS011;20010;51.488;7.232;2023-03-01T10:58:07;8.25;;;5.15;;
33491;SDS011;20010;51.488;7.232;2023-03-01T11:00:48;7.65;;;5.72;;
33491;SDS011;20010;51.488;7.232;2023-03-01T11:03:21;7.45;;;6.07;;
33491;SDS011;20010;51.488;7.232;2023-03-01T11:05:56;5.35;;;4.85;;
33491;SDS011;20010;51.488;7.232;2023-03-01T11:11:09;8.43;;;5.80;;
33491;SDS011;20010;51.488;7.232;2023-03-01T11:16:22;7.40;;;6.18;;
33491;SDS011;20010;51.488;7.232;2023-03-01T11:18:57;6.30;;;5.70;;
33491;SDS011;20010;51.488;7.232;2023-03-01T11:21:30;7.15;;;5.57;;
33491;SDS011;20010;51.488;7.232;2023-03-01T11:23:59;8.05;;;5.55;;
33491;SDS011;20010;51.488;7.232;2023-03-01T11:26:29;8.60;;;6.75;;
33491;SDS011;20010;51.488;7.232;2023-03-01T11:28:58;10.15;;;6.35;;
33491;SDS011;20010;51.488;7.232;2023-03-01T11:31:28;7.43;;;6.22;;
33491;SDS011;20010;51.488;7.232;2023-03-01T11:34:13;10.13;;;6.38;;
33491;SDS011;20010;51.488;7.232;2023-03-01T11:36:56;13.15;;;5.70;;
33491;SDS011;20010;51.488;7.232;2023-03-01T11:45:11;6.20;;;5.45;;
33491;SDS011;20010;51.488;7.232;2023-03-01T11:50:44;7.53;;;6.35;;
33491;SDS011;20010;51.488;7.232;2023-03-01T12:01:32;6.68;;;5.72;;
33491;SDS011;20010;51.488;7.232;2023-03-01T12:45:57;8.02;;;5.57;;
33491;SDS011;20010;51.488;7.232;2023-03-01T12:51:19;6.28;;;5.25;;
33491;SDS011;20010;51.488;7.232;2023-03-01T12:53:50;6.60;;;5.60;;
33491;SDS011;20010;51.488;7.232;2023-03-01T12:56:21;5.53;;;4.95;;
33491;SDS011;20010;51.488;7.232;2023-03-01T13:07:35;6.60;;;5.93;;
33491;SDS011;20010;51.488;7.232;2023-03-01T13:17:52;7.10;;;4.90;;
33491;SDS011;20010;51.488;7.232;2023-03-01T13:20:20;6.43;;;5.18;;
33491;SDS011;20010;51.488;7.232;2023-03-01T13:25:27;7.22;;;4.72;;
33491;SDS011;20010;51.488;7.232;2023-03-01T13:30:58;8.15;;;5.50;;
33491;SDS011;20010;51.488;7.232;2023-03-01T13:35:55;5.87;;;5.27;;
33491;SDS011;20010;51.488;7.232;2023-03-01T13:47:01;7.22;;;6.60;;
33491;SDS011;20010;51.488;7.232;2023-03-01T13:49:40;7.20;;;6.07;;
33491;SDS011;20010;51.488;7.232;2023-03-01T13:52:32;5.80;;;5.25;;
33491;SDS011;20010;51.488;7.232;2023-03-01T13:55:01;9.27;;;5.30;;
33491;SDS011;20010;51.488;7.232;2023-03-01T13:57:32;7.60;;;5.43;;
33491;SDS011;20010;51.488;7.232;2023-03-01T14:00:00;5.88;;;5.18;;
33491;SDS011;20010;51.488;7.232;2023-03-01T14:02:29;7.65;;;5.60;;
33491;SDS011;20010;51.488;7.232;2023-03-01T14:04:56;7.93;;;6.03;;
33491;SDS011;20010;51.488;7.232;2023-03-01T14:07:24;9.63;;;6.00;;
33491;SDS011;20010;51.488;7.232;2023-03-01T14:10:00;7.30;;;5.13;;
33491;SDS011;20010;51.488;7.232;2023-03-01T14:12:39;6.40;;;5.80;;
33491;SDS011;20010;51.488;7.232;2023-03-01T14:15:19;6.18;;;5.57;;
33491;SDS011;20010;51.488;7.232;2023-03-01T14:17:59;8.65;;;6.45;;
33491;SDS011;20010;51.488;7.232;2023-03-01T14:20:37;7.65;;;5.25;;
33491;SDS011;20010;51.488;7.232;2023-03-01T14:23:13;6.85;;;5.07;;
33491;SDS011;20010;51.488;7.232;2023-03-01T14:25:46;11.25;;;6.10;;
33491;SDS011;20010;51.488;7.232;2023-03-01T14:28:24;6.25;;;5.65;;
33491;SDS011;20010;51.488;7.232;2023-03-01T14:30:56;8.63;;;6.07;;
33491;SDS011;20010;51.488;7.232;2023-03-01T14:38:23;6.95;;;5.93;;
33491;SDS011;20010;51.488;7.232;2023-03-01T14:40:57;6.70;;;6.00;;
33491;SDS011;20010;51.488;7.232;2023-03-01T14:43:25;6.20;;;5.60;;
33491;SDS011;20010;51.488;7.232;2023-03-01T14:45:53;7.07;;;6.38;;
33491;SDS011;20010;51.488;7.232;2023-03-01T14:48:19;9.15;;;6.85;;
33491;SDS011;20010;51.488;7.232;2023-03-01T14:50:46;7.70;;;5.90;;
33491;SDS011;20010;51.488;7.232;2023-03-01T14:53:21;8.05;;;6.20;;
33491;SDS011;20010;51.488;7.232;2023-03-01T14:55:52;6.88;;;6.03;;
33491;SDS011;20010;51.488;7.232;2023-03-01T14:58:24;8.77;;;6.05;;
33491;SDS011;20010;51.488;7.232;2023-03-01T15:00:55;7.88;;;6.00;;
33491;SDS011;20010;51.488;7.232;2023-03-01T15:05:58;8.18;;;6.43;;
33491;SDS011;20010;51.488;7.232;2023-03-01T15:08:27;7.18;;;5.88;;
33491;SDS011;20010;51.488;7.232;2023-03-01T15:11:15;8.65;;;6.75;;
33491;SDS011;20010;51.488;7.232;2023-03-01T15:13:44;7.50;;;6.50;;
33491;SDS011;20010;51.488;7.232;2023-03-01T15:16:13;6.57;;;5.72;;
33491;SDS011;20010;51.488;7.232;2023-03-01T15:18:45;9.13;;;6.45;;
33491;SDS011;20010;51.488;7.232;2023-03-01T15:21:18;6.90;;;5.53;;
33491;SDS011;20010;51.488;7.232;2023-03-01T15:23:50;9.27;;;6.75;;
33491;SDS011;20010;51.488;7.232;2023-03-01T15:26:28;12.93;;;7.13;;
33491;SDS011;20010;51.488;7.232;2023-03-01T15:29:04;9.75;;;6.75;;
33491;SDS011;20010;51.488;7.232;2023-03-01T15:31:35;7.40;;;5.82;;
33491;SDS011;20010;51.488;7.232;2023-03-01T15:34:20;8.48;;;5.90;;
33491;SDS011;20010;51.488;7.232;2023-03-01T15:36:48;9.35;;;6.85;;
33491;SDS011;20010;51.488;7.232;2023-03-01T15:42:04;8.00;;;5.88;;
33491;SDS011;20010;51.488;7.232;2023-03-01T15:44:32;8.60;;;6.32;;
33491;SDS011;20010;51.488;7.232;2023-03-01T15:47:22;6.68;;;5.75;;
33491;SDS011;20010;51.488;7.232;2023-03-01T15:49:51;12.88;;;7.72;;
33491;SDS011;20010;51.488;7.232;2023-03-01T15:52:28;8.38;;;5.68;;
33491;SDS011;20010;51.488;7.232;2023-03-01T15:54:59;7.93;;;6.45;;
33491;SDS011;20010;51.488;7.232;2023-03-01T15:57:27;6.72;;;5.45;;
33491;SDS011;20010;51.488;7.232;2023-03-01T15:59:53;5.85;;;4.75;;
33491;SDS011;20010;51.488;7.232;2023-03-01T16:02:21;6.68;;;5.40;;
33491;SDS011;20010;51.488;7.232;2023-03-01T16:04:49;8.88;;;5.00;;
33491;SDS011;20010;51.488;7.232;2023-03-01T16:07:15;10.55;;;5.53;;
33491;SDS011;20010;51.488;7.232;2023-03-01T16:09:42;6.25;;;5.30;;
33491;SDS011;20010;51.488;7.232;2023-03-01T16:12:15;7.10;;;5.32;;
33491;SDS011;20010;51.488;7.232;2023-03-01T16:14:42;8.40;;;6.43;;
33491;SDS011;20010;51.488;7.232;2023-03-01T16:17:09;7.85;;;5.22;;
33491;SDS011;20010;51.488;7.232;2023-03-01T16:19:39;7.93;;;5.43;;
33491;SDS011;20010;51.488;7.232;2023-03-01T16:22:09;14.38;;;9.15;;
33491;SDS011;20010;51.488;7.232;2023-03-01T16:24:36;10.38;;;5.80;;
33491;SDS011;20010;51.488;7.232;2023-03-01T16:27:03;5.88;;;4.90;;
33491;SDS011;20010;51.488;7.232;2023-03-01T16:29:29;8.85;;;5.28;;
33491;SDS011;20010;51.488;7.232;2023-03-01T16:31:56;8.40;;;4.70;;
33491;SDS011;20010;51.488;7.232;2023-03-01T16:34:23;9.15;;;5.18;;
33491;SDS011;20010;51.488;7.232;2023-03-01T16:36:50;5.40;;;4.70;;
33491;SDS011;20010;51.488;7.232;2023-03-01T16:39:16;8.88;;;4.63;;
33491;SDS011;20010;51.488;7.232;2023-03-01T16:41:43;5.00;;;4.50;;
33491;SDS011;20010;51.488;7.232;2023-03-01T16:44:09;6.93;;;4.82;;
33491;SDS011;20010;51.488;7.232;2023-03-01T16:46:36;7.18;;;4.55;;
33491;SDS011;20010;51.488;7.232;2023-03-01T16:49:03;5.88;;;4.60;;
33491;SDS011;20010;51.488;7.232;2023-03-01T16:51:29;7.43;;;4.50;;
33491;SDS011;20010;51.488;7.232;2023-03-01T16:53:57;6.28;;;4.50;;
33491;SDS011;20010;51.488;7.232;2023-03-01T16:56:24;6.65;;;4.55;;
33491;SDS011;20010;51.488;7.232;2023-03-01T16:58:50;6.10;;;4.50;;
33491;SDS011;20010;51.488;7.232;2023-03-01T17:01:18;5.60;;;4.57;;
33491;SDS011;20010;51.488;7.232;2023-03-01T17:03:46;7.80;;;4.75;;
33491;SDS011;20010;51.488;7.232;2023-03-01T17:06:15;6.88;;;5.25;;
33491;SDS011;20010;51.488;7.232;2023-03-01T17:08:43;6.97;;;5.70;;
33491;SDS011;20010;51.488;7.232;2023-03-01T17:11:11;8.23;;;4.68;;
33491;SDS011;20010;51.488;7.232;2023-03-01T17:13:39;6.00;;;4.50;;
33491;SDS011;20010;51.488;7.232;2023-03-01T17:16:07;8.68;;;4.72;;
33491;SDS011;20010;51.488;7.232;2023-03-01T17:18:36;5.10;;;4.57;;
33491;SDS011;20010;51.488;7.232;2023-03-01T17:21:03;6.50;;;4.53;;
33491;SDS011;20010;51.488;7.232;2023-03-01T17:23:31;5.97;;;4.78;;
33491;SDS011;20010;51.488;7.232;2023-03-01T17:25:58;5.63;;;4.72;;